Time;durP1;ratioP1;P1;durP2;ratioP2;P2;SDS_P1;SDS_P2;PMS_P1;PMS_P2;Temp;Humidity;BMP_temperature;BMP_pressure;BME280_temperature;BME280_humidity;BME280_pressure;Samples;Min_cycle;Max_cycle;Signal;HPM_P1;HPM_P2
2021/08/18 00:01:09;;;;;;;7.63;4.30;;;;;;;29.96;32.75;99151.00;5029751;28;20029;-36
2021/08/18 00:03:35;;;;;;;10.80;4.40;;;;;;;29.93;32.64;99154.47;5029690;28;20410;-36
2021/08/18 00:06:00;;;;;;;11.15;4.70;;;;;;;29.99;32.32;99150.31;5029887;28;20022;-36
2021/08/18 00:08:26;;;;;;;11.65;4.53;;;;;;;30.07;32.10;99139.56;5029389;28;20095;-36
2021/08/18 00:10:51;;;;;;;6.90;4.22;;;;;;;29.86;32.45;99137.78;5029507;28;20037;-36
2021/08/18 00:13:17;;;;;;;7.45;4.22;;;;;;;29.89;32.22;99130.81;5029557;28;20191;-37
2021/08/18 00:15:43;;;;;;;10.85;4.13;;;;;;;30.01;32.11;99128.81;5029293;28;20485;-36
2021/08/18 00:18:08;;;;;;;8.85;4.57;;;;;;;30.15;31.94;99122.13;5028801;28;20116;-37
2021/08/18 00:20:34;;;;;;;8.90;4.10;;;;;;;30.16;31.68;99118.25;5029564;28;20030;-36
2021/08/18 00:23:00;;;;;;;9.05;4.40;;;;;;;29.75;32.28;99114.75;5029567;28;20409;-36
2021/08/18 00:25:26;;;;;;;6.32;4.03;;;;;;;29.72;32.21;99107.16;5029417;28;20481;-36
2021/08/18 00:27:53;;;;;;;7.00;4.35;;;;;;;29.66;32.79;99111.31;5029458;28;20021;-36
2021/08/18 00:30:18;;;;;;;6.78;4.35;;;;;;;29.81;32.48;99110.59;5029475;28;20044;-37
2021/08/18 00:32:44;;;;;;;9.75;4.50;;;;;;;29.53;32.86;99107.78;5029466;28;20021;-36
2021/08/18 00:35:09;;;;;;;7.57;3.92;;;;;;;29.54;32.32;99101.97;5029353;28;20029;-36
2021/08/18 00:37:35;;;;;;;9.55;4.40;;;;;;;29.53;32.33;99105.03;5029291;28;20029;-36
2021/08/18 00:40:00;;;;;;;8.43;4.28;;;;;;;29.59;32.23;99093.50;5029392;28;20483;-37
2021/08/18 00:42:26;;;;;;;5.85;4.20;;;;;;;29.40;32.68;99085.91;5029191;28;20048;-36
2021/08/18 00:44:53;;;;;;;5.93;4.05;;;;;;;28.78;33.62;99081.56;5027870;28;20056;-36
2021/08/18 00:47:19;;;;;;;8.05;4.30;;;;;;;28.69;33.87;99072.66;5029145;28;20091;-36
2021/08/18 00:49:44;;;;;;;8.13;4.32;;;;;;;29.00;33.59;99072.91;5029410;28;20025;-36
2021/08/18 00:52:10;;;;;;;8.50;4.50;;;;;;;29.33;32.96;99071.19;5029127;28;20035;-36
2021/08/18 00:54:35;;;;;;;9.32;4.35;;;;;;;28.36;34.96;99066.06;5029315;28;20017;-37
2021/08/18 00:57:02;;;;;;;7.03;4.18;;;;;;;28.00;35.84;99064.03;5029014;28;20037;-36
2021/08/18 00:59:29;;;;;;;11.50;4.55;;;;;;;28.22;35.35;99068.34;5029121;28;20421;-37
2021/08/18 01:01:54;;;;;;;7.95;4.40;;;;;;;28.52;34.81;99065.44;5028941;28;20029;-37
2021/08/18 01:04:20;;;;;;;10.90;4.32;;;;;;;28.37;35.50;99064.13;5029065;28;20044;-36
2021/08/18 01:06:45;;;;;;;6.05;4.50;;;;;;;28.39;35.42;99061.88;5029177;28;20061;-36
2021/08/18 01:09:13;;;;;;;8.90;4.70;;;;;;;27.66;36.14;99030.38;5029398;28;20029;-35
2021/08/18 01:11:39;;;;;;;7.90;4.63;;;;;;;27.42;36.94;99050.97;5029124;28;20104;-37
2021/08/18 01:14:05;;;;;;;7.35;4.45;;;;;;;27.80;36.25;99044.56;5029239;28;20029;-35
2021/08/18 01:16:34;;;;;;;10.50;4.60;;;;;;;27.25;37.65;99040.97;5028942;28;20056;-37
2021/08/18 01:19:01;;;;;;;11.27;4.82;;;;;;;27.44;37.24;99042.47;5029099;28;20112;-36
2021/08/18 01:21:26;;;;;;;7.53;5.00;;;;;;;27.85;36.55;99041.63;5028981;28;20482;-35
2021/08/18 01:23:52;;;;;;;7.20;4.72;;;;;;;28.25;35.44;99035.63;5028989;28;20052;-36
2021/08/18 01:26:17;;;;;;;9.63;4.90;;;;;;;28.25;35.61;99035.63;5038486;28;20040;-36
2021/08/18 01:28:42;;;;;;;6.82;5.03;;;;;;;28.21;35.72;99031.16;5050423;28;20094;-37
2021/08/18 01:31:08;;;;;;;7.30;4.88;;;;;;;28.11;35.94;99032.41;5052227;28;20033;-35
2021/08/18 01:33:33;;;;;;;7.13;5.00;;;;;;;28.16;35.89;99031.38;5052438;28;20418;-36
2021/08/18 01:35:59;;;;;;;14.38;5.60;;;;;;;28.46;35.34;99032.81;5052353;28;20025;-36
2021/08/18 01:38:24;;;;;;;9.50;5.70;;;;;;;28.01;36.42;99050.03;5052385;28;20090;-36
2021/08/18 01:40:51;;;;;;;7.50;5.65;;;;;;;28.01;36.18;99052.75;5052433;28;20040;-35
2021/08/18 01:43:18;;;;;;;8.38;6.03;;;;;;;28.29;35.72;99063.09;5052439;28;20157;-35
2021/08/18 01:45:44;;;;;;;11.32;6.05;;;;;;;28.52;35.41;99068.19;5052395;28;20113;-36
2021/08/18 01:48:14;;;;;;;13.90;6.68;;;;;;;28.02;36.20;99081.69;5052555;28;20127;-36
2021/08/18 01:50:41;;;;;;;9.52;6.40;;;;;;;28.10;36.06;99082.75;5052821;28;20033;-36
2021/08/18 01:53:06;;;;;;;10.70;6.20;;;;;;;28.14;35.82;99094.63;5052308;28;20437;-36
2021/08/18 01:55:32;;;;;;;9.27;6.20;;;;;;;28.31;35.44;99099.13;5052557;28;20165;-38
2021/08/18 01:57:58;;;;;;;10.65;5.72;;;;;;;28.28;35.41;99099.81;5052330;28;20048;-36
2021/08/18 02:00:23;;;;;;;8.43;5.65;;;;;;;28.11;35.77;99100.75;5052689;28;20051;-36
2021/08/18 02:02:49;;;;;;;10.05;5.00;;;;;;;28.22;35.52;99110.16;5052063;28;20033;-36
2021/08/18 02:05:14;;;;;;;9.27;5.20;;;;;;;28.24;35.22;99121.56;5052448;28;20036;-36
2021/08/18 02:07:40;;;;;;;6.95;5.10;;;;;;;28.05;35.46;99118.53;5051997;28;20541;-36
2021/08/18 02:10:13;;;;;;;10.00;5.05;;;;;;;27.63;36.35;99129.44;5052325;28;20417;-36
2021/08/18 02:12:39;;;;;;;10.23;5.40;;;;;;;27.84;36.07;99127.50;5052020;28;20062;-35
2021/08/18 02:15:13;;;;;;;7.60;4.70;;;;;;;28.00;35.71;99129.66;5051742;28;20111;-35
2021/08/18 02:17:38;;;;;;;9.07;5.07;;;;;;;28.28;35.01;99116.22;5052139;28;20089;-36
2021/08/18 02:20:05;;;;;;;7.45;4.75;;;;;;;28.16;35.21;99130.66;5052028;28;20036;-37
2021/08/18 02:22:31;;;;;;;8.70;5.10;;;;;;;27.98;35.62;99131.91;5051727;28;20477;-36
2021/08/18 02:24:56;;;;;;;7.43;4.70;;;;;;;28.22;35.02;99136.72;5050285;28;20086;-36
2021/08/18 02:27:22;;;;;;;7.88;4.43;;;;;;;28.13;35.07;99133.25;5032882;28;20052;-35
2021/08/18 02:29:47;;;;;;;7.40;4.60;;;;;;;27.91;35.65;99146.13;5031903;28;20049;-36
2021/08/18 02:32:13;;;;;;;7.78;4.72;;;;;;;27.68;36.15;99145.63;5032020;28;20033;-36
2021/08/18 02:34:38;;;;;;;8.32;4.80;;;;;;;27.79;36.41;99151.50;5031830;28;20052;-35
2021/08/18 02:37:04;;;;;;;9.23;5.00;;;;;;;28.24;35.78;99150.84;5031648;28;20103;-37
2021/08/18 02:39:29;;;;;;;7.93;5.55;;;;;;;28.11;36.05;99147.25;5031078;28;20033;-36
2021/08/18 02:41:55;;;;;;;8.32;4.88;;;;;;;27.79;36.99;99155.03;5031240;28;20033;-37
2021/08/18 02:44:20;;;;;;;8.95;4.93;;;;;;;27.87;37.22;99145.97;5031280;28;20037;-37
2021/08/18 02:46:46;;;;;;;7.72;4.95;;;;;;;28.08;37.15;99139.72;5031502;28;20030;-36
2021/08/18 02:49:11;;;;;;;8.07;5.15;;;;;;;28.05;37.45;99143.13;5031376;28;20026;-37
2021/08/18 02:51:37;;;;;;;10.13;5.40;;;;;;;27.58;38.55;99140.56;5031588;28;20025;-37
2021/08/18 02:54:02;;;;;;;7.82;5.25;;;;;;;27.53;38.58;99141.56;5031215;28;20502;-36
2021/08/18 02:56:28;;;;;;;10.45;5.43;;;;;;;27.88;37.93;99142.13;5031271;28;20138;-36
2021/08/18 02:58:53;;;;;;;6.97;4.93;;;;;;;28.02;37.54;99139.09;5031765;28;20025;-37
2021/08/18 03:01:19;;;;;;;6.45;5.00;;;;;;;27.83;37.81;99144.22;5031134;28;20091;-36
2021/08/18 03:03:44;;;;;;;7.15;5.22;;;;;;;27.61;38.22;99146.16;5031001;28;20033;-36
2021/08/18 03:06:09;;;;;;;6.25;5.07;;;;;;;27.81;37.67;99147.28;5030914;28;20446;-36
2021/08/18 03:08:35;;;;;;;9.90;4.80;;;;;;;27.93;37.41;99145.78;5032244;28;20025;-38
2021/08/18 03:11:00;;;;;;;9.13;5.18;;;;;;;28.11;36.97;99136.31;5031982;28;20029;-39
2021/08/18 03:13:27;;;;;;;7.00;5.00;;;;;;;27.80;37.54;99142.19;5030299;28;20025;-39
2021/08/18 03:15:52;;;;;;;8.82;4.93;;;;;;;27.99;37.35;99148.00;5031417;28;20028;-37
2021/08/18 03:18:18;;;;;;;16.77;11.15;;;;;;;28.26;36.70;99152.09;5031993;28;20037;-36
2021/08/18 03:20:43;;;;;;;27.70;21.35;;;;;;;28.26;36.68;99137.63;5031714;28;20552;-36
2021/08/18 03:23:09;;;;;;;7.05;5.80;;;;;;;27.63;37.83;99146.63;5030783;28;20040;-36
2021/08/18 03:25:34;;;;;;;14.40;6.07;;;;;;;27.65;38.13;99152.56;5030520;28;20033;-37
2021/08/18 03:28:00;;;;;;;8.13;5.20;;;;;;;27.72;37.33;99093.81;5030144;28;20473;-37
2021/08/18 03:30:25;;;;;;;5.95;4.88;;;;;;;28.21;36.87;99141.34;5030402;28;20072;-36
2021/08/18 03:32:51;;;;;;;9.60;5.60;;;;;;;28.37;36.38;99140.72;5029401;28;20033;-36
2021/08/18 03:35:16;;;;;;;12.18;5.35;;;;;;;28.01;37.27;99139.47;5029355;28;20104;-37
2021/08/18 03:37:42;;;;;;;9.00;5.30;;;;;;;28.05;37.23;99135.72;5027837;28;20044;-37
2021/08/18 03:40:08;;;;;;;11.73;5.53;;;;;;;28.18;37.08;99133.84;5029120;28;20033;-36
2021/08/18 03:42:33;;;;;;;7.85;5.90;;;;;;;28.23;36.94;99136.34;5028955;28;20099;-36
2021/08/18 03:44:58;;;;;;;14.25;10.40;;;;;;;28.04;37.37;99142.31;5028979;28;20026;-36
2021/08/18 03:47:24;;;;;;;17.05;10.98;;;;;;;27.84;37.81;99152.09;5027739;28;20021;-36
2021/08/18 03:49:49;;;;;;;12.15;6.10;;;;;;;28.08;37.14;99140.53;5029111;28;20033;-36
2021/08/18 03:52:15;;;;;;;9.95;5.88;;;;;;;28.18;37.10;99138.50;5028380;28;20162;-37
2021/08/18 03:54:40;;;;;;;10.52;5.60;;;;;;;28.36;36.58;99139.16;5028987;28;20032;-36
2021/08/18 03:57:06;;;;;;;7.47;5.70;;;;;;;28.11;37.18;99141.78;5028734;28;20068;-37
2021/08/18 03:59:31;;;;;;;10.00;5.57;;;;;;;28.21;36.78;99140.56;5028937;28;20025;-36
2021/08/18 04:01:57;;;;;;;11.05;5.55;;;;;;;28.20;36.67;99149.91;5028602;28;20036;-36
2021/08/18 04:04:22;;;;;;;9.88;5.47;;;;;;;27.76;37.03;99094.75;5028380;28;20029;-36
2021/08/18 04:06:47;;;;;;;11.23;5.65;;;;;;;28.27;36.78;99141.94;5028870;28;20053;-37
2021/08/18 04:09:13;;;;;;;42.15;30.15;;;;;;;28.03;37.33;99137.19;5028654;28;20025;-36
2021/08/18 04:11:38;;;;;;;38.65;23.77;;;;;;;27.89;37.11;99153.84;5028611;28;20037;-39
2021/08/18 04:14:04;;;;;;;10.50;5.50;;;;;;;28.16;36.87;99141.59;5028716;28;20033;-37
2021/08/18 04:16:29;;;;;;;9.02;5.68;;;;;;;28.38;36.35;99150.53;5028712;28;20026;-37
2021/08/18 04:18:55;;;;;;;15.35;7.68;;;;;;;27.95;36.25;99155.28;5029337;28;20032;-36
2021/08/18 04:21:21;;;;;;;11.93;5.78;;;;;;;28.21;36.82;99157.78;5029389;28;20029;-37
2021/08/18 04:23:46;;;;;;;7.93;5.70;;;;;;;28.23;36.93;99151.97;5029154;28;20033;-37
2021/08/18 04:26:12;;;;;;;9.18;5.68;;;;;;;28.05;37.31;99162.28;5028996;28;20032;-37
2021/08/18 04:28:37;;;;;;;111.45;73.20;;;;;;;27.67;38.06;99163.94;5029362;28;20100;-48
2021/08/18 04:31:03;;;;;;;23.83;12.82;;;;;;;27.48;38.75;99160.88;5029450;28;20413;-52
2021/08/18 04:33:28;;;;;;;8.57;6.25;;;;;;;27.36;39.18;99164.31;5028794;28;20481;-51
2021/08/18 04:35:54;;;;;;;12.85;6.80;;;;;;;26.62;40.99;99170.97;5029038;28;20029;-52
2021/08/18 04:38:19;;;;;;;16.73;9.40;;;;;;;27.15;39.73;99168.84;5029153;28;20025;-37
2021/08/18 04:40:45;;;;;;;17.90;11.43;;;;;;;27.46;39.38;99174.84;5039053;28;20028;-37
2021/08/18 04:43:12;;;;;;;10.02;6.00;;;;;;;27.93;38.32;99173.94;5048470;28;20029;-35
2021/08/18 04:45:38;;;;;;;12.38;6.53;;;;;;;28.31;37.36;99177.66;5049857;28;20124;-36
2021/08/18 04:48:04;;;;;;;14.20;6.43;;;;;;;28.51;36.73;99187.75;5049598;28;20131;-35
2021/08/18 04:50:29;;;;;;;13.85;6.13;;;;;;;28.73;36.35;99185.78;5049002;28;20107;-37
2021/08/18 04:52:55;;;;;;;13.18;7.10;;;;;;;28.69;36.45;99176.66;5049053;28;20420;-36
2021/08/18 04:55:20;;;;;;;11.38;5.97;;;;;;;28.94;35.97;99178.31;5048156;28;20021;-35
2021/08/18 04:57:46;;;;;;;12.40;6.55;;;;;;;29.07;35.84;99184.59;5047622;28;20029;-36
2021/08/18 05:00:12;;;;;;;15.25;7.03;;;;;;;29.78;34.26;99191.63;5047222;28;20386;-36
2021/08/18 05:02:38;;;;;;;12.25;6.70;;;;;;;29.62;35.20;99191.50;5050477;28;20074;-37
2021/08/18 05:05:04;;;;;;;10.45;6.47;;;;;;;30.04;34.40;99190.41;5052470;28;20033;-36
2021/08/18 05:07:29;;;;;;;12.45;6.95;;;;;;;30.27;34.06;99192.63;5052536;28;20049;-37
2021/08/18 05:09:55;;;;;;;10.57;6.80;;;;;;;30.84;33.41;99198.91;5052680;28;20393;-38
2021/08/18 05:12:21;;;;;;;17.05;7.03;;;;;;;30.89;32.71;99199.44;5053021;28;20029;-37
2021/08/18 05:14:46;;;;;;;13.10;6.80;;;;;;;30.91;32.64;99202.66;5052615;28;20485;-35
2021/08/18 05:17:12;;;;;;;14.35;7.03;;;;;;;31.03;32.43;99201.78;5052376;28;20040;-37
2021/08/18 05:19:37;;;;;;;16.20;7.50;;;;;;;31.09;32.59;99199.56;5052715;28;20396;-37
2021/08/18 05:22:03;;;;;;;13.50;7.60;;;;;;;31.05;32.42;99207.72;5053025;28;20024;-35
2021/08/18 05:24:28;;;;;;;13.23;7.00;;;;;;;31.01;32.45;99198.59;5052678;28;20028;-37
2021/08/18 05:26:54;;;;;;;13.73;6.90;;;;;;;30.83;33.22;99209.09;5052503;28;20021;-36
2021/08/18 05:29:19;;;;;;;13.68;7.10;;;;;;;31.47;32.10;99206.41;5052575;28;20025;-36
2021/08/18 05:31:45;;;;;;;17.65;7.00;;;;;;;31.75;31.69;99203.50;5052717;28;20354;-37
2021/08/18 05:34:10;;;;;;;13.50;6.70;;;;;;;31.95;31.38;99209.84;5052529;28;20016;-36
2021/08/18 05:36:36;;;;;;;13.23;6.43;;;;;;;32.11;31.48;99212.56;5052761;28;20016;-37
2021/08/18 05:39:01;;;;;;;9.90;6.65;;;;;;;31.84;31.87;99212.38;5052224;28;20025;-38
2021/08/18 05:41:26;;;;;;;12.25;5.70;;;;;;;32.40;31.23;99213.16;5052773;28;20033;-37
2021/08/18 05:43:52;;;;;;;9.43;6.15;;;;;;;32.28;31.84;99220.41;5053184;28;20032;-36
2021/08/18 05:46:18;;;;;;;8.23;5.88;;;;;;;32.10;31.87;99221.97;5052786;28;20021;-37
2021/08/18 05:48:43;;;;;;;14.05;7.35;;;;;;;32.03;31.92;99225.38;5052506;28;20067;-36
2021/08/18 05:51:09;;;;;;;18.52;6.90;;;;;;;32.09;32.23;99231.41;5052118;28;20210;-35
2021/08/18 05:53:34;;;;;;;15.23;6.82;;;;;;;31.54;33.39;99239.56;5052404;28;20025;-37
2021/08/18 05:56:00;;;;;;;10.60;5.95;;;;;;;31.68;33.35;99233.59;5052447;28;20025;-36
2021/08/18 05:58:25;;;;;;;10.80;5.80;;;;;;;31.91;33.03;99223.53;5052361;28;20021;-37
2021/08/18 06:00:51;;;;;;;10.68;5.75;;;;;;;32.22;32.52;99235.59;5052237;28;20032;-37
2021/08/18 06:03:16;;;;;;;10.70;6.28;;;;;;;31.84;33.33;99230.81;5052186;28;20481;-38
2021/08/18 06:05:42;;;;;;;9.80;5.30;;;;;;;31.16;34.12;99238.22;5050757;28;20028;-37
2021/08/18 06:08:07;;;;;;;11.63;5.13;;;;;;;32.20;32.77;99231.63;5052262;28;20052;-37
2021/08/18 06:10:33;;;;;;;10.52;5.05;;;;;;;33.11;31.58;99228.31;5052007;28;20060;-37
2021/08/18 06:13:01;;;;;;;9.52;5.60;;;;;;;33.68;30.72;99228.44;5052140;28;20067;-36
2021/08/18 06:15:30;;;;;;;10.70;5.67;;;;;;;33.31;30.91;99231.00;5051455;28;20488;-36
2021/08/18 06:17:56;;;;;;;10.27;5.40;;;;;;;33.25;31.24;99216.72;5051722;28;20134;-41
2021/08/18 06:20:21;;;;;;;9.32;5.38;;;;;;;33.21;31.15;99226.09;5052330;28;20413;-36
2021/08/18 06:22:47;;;;;;;8.85;5.25;;;;;;;32.47;32.14;99229.81;5051507;28;20353;-36
2021/08/18 06:25:12;;;;;;;9.73;5.07;;;;;;;32.04;33.23;99220.66;5051496;28;20078;-37
2021/08/18 06:27:38;;;;;;;11.13;5.20;;;;;;;31.95;33.26;99232.66;5051417;28;20032;-37
2021/08/18 06:30:04;;;;;;;13.35;5.28;;;;;;;32.22;32.90;99223.81;5051656;28;20481;-38
2021/08/18 06:32:30;;;;;;;10.07;5.55;;;;;;;32.55;32.26;99231.53;5051559;28;20369;-38
2021/08/18 06:34:55;;;;;;;9.52;4.95;;;;;;;32.62;32.47;99223.47;5051654;28;20021;-37
2021/08/18 06:37:21;;;;;;;11.30;5.43;;;;;;;33.09;31.56;99219.59;5051228;28;20465;-37
2021/08/18 06:39:46;;;;;;;10.90;5.00;;;;;;;33.61;30.56;99219.25;5051172;28;20469;-38
2021/08/18 06:42:12;;;;;;;9.77;5.20;;;;;;;34.15;30.01;99218.03;5050952;28;20048;-45
2021/08/18 06:44:37;;;;;;;10.07;5.10;;;;;;;34.25;29.49;99211.91;5051345;28;20021;-43
2021/08/18 06:47:04;;;;;;;11.10;5.38;;;;;;;34.74;29.30;99214.81;5051587;28;20591;-37
2021/08/18 06:49:29;;;;;;;8.25;5.22;;;;;;;34.30;29.26;99209.97;5051270;28;20063;-37
2021/08/18 06:51:54;;;;;;;10.60;5.43;;;;;;;33.73;30.09;99208.00;5051053;28;20024;-38
2021/08/18 06:54:20;;;;;;;11.55;4.90;;;;;;;34.54;29.10;99209.47;5051061;28;20024;-38
2021/08/18 06:56:45;;;;;;;10.77;5.30;;;;;;;35.31;28.29;99218.13;5050835;28;20028;-37
2021/08/18 06:59:11;;;;;;;11.20;5.20;;;;;;;34.34;28.56;99217.09;5051068;28;20020;-37
2021/08/18 07:01:36;;;;;;;10.25;5.10;;;;;;;34.97;28.10;99211.88;5050594;28;20043;-38
2021/08/18 07:04:05;;;;;;;11.88;5.03;;;;;;;35.12;27.50;99204.50;5050672;28;20033;-38
2021/08/18 07:06:30;;;;;;;8.23;4.85;;;;;;;34.70;27.66;99203.72;5050629;28;20095;-37
2021/08/18 07:08:56;;;;;;;11.15;4.95;;;;;;;34.82;27.68;99209.00;5050644;28;20076;-37
2021/08/18 07:11:21;;;;;;;10.75;5.20;;;;;;;34.42;28.51;99210.53;5044565;28;20404;-38
2021/08/18 07:13:46;;;;;;;10.88;5.60;;;;;;;34.45;28.42;99207.00;5041123;28;20036;-37
2021/08/18 07:16:12;;;;;;;8.35;5.00;;;;;;;34.88;28.36;99222.44;5041819;28;20087;-38
2021/08/18 07:18:37;;;;;;;8.75;5.32;;;;;;;35.52;27.19;99208.41;5039562;28;20032;-37
2021/08/18 07:21:03;;;;;;;10.60;5.00;;;;;;;35.88;26.32;99222.47;5040648;28;20136;-38
2021/08/18 07:23:28;;;;;;;10.52;5.00;;;;;;;34.94;27.94;99218.97;5041034;28;20025;-37
2021/08/18 07:25:54;;;;;;;15.80;5.38;;;;;;;35.29;27.77;99222.44;5035193;28;20028;-38
2021/08/18 07:28:19;;;;;;;10.05;5.18;;;;;;;35.70;26.69;99212.09;5030555;28;20458;-38
2021/08/18 07:30:45;;;;;;;9.05;5.10;;;;;;;36.32;26.31;99204.91;5030304;28;20044;-37
2021/08/18 07:33:10;;;;;;;8.60;4.90;;;;;;;36.54;25.53;99209.31;5031037;28;20040;-38
2021/08/18 07:35:35;;;;;;;12.15;5.63;;;;;;;36.64;25.35;99207.75;5030687;28;20029;-37
2021/08/18 07:38:01;;;;;;;8.80;5.00;;;;;;;36.80;25.16;99212.94;5029354;28;20025;-38
2021/08/18 07:40:26;;;;;;;10.48;5.30;;;;;;;37.06;25.26;99222.09;5030864;28;20040;-37
2021/08/18 07:42:52;;;;;;;8.93;5.05;;;;;;;37.29;24.78;99207.88;5030800;28;20596;-37
2021/08/18 07:45:18;;;;;;;9.00;5.07;;;;;;;37.10;24.86;99211.78;5028903;28;20321;-38
2021/08/18 07:47:45;;;;;;;9.20;5.07;;;;;;;37.41;24.66;99217.75;5028697;28;20493;-38
2021/08/18 07:50:10;;;;;;;11.80;6.00;;;;;;;37.27;24.27;99210.25;5028441;28;20048;-38
2021/08/18 07:52:36;;;;;;;9.35;5.45;;;;;;;37.61;24.18;99218.16;5028762;28;20037;-38
2021/08/18 07:55:03;;;;;;;16.52;5.60;;;;;;;37.73;23.84;99204.63;5028954;28;20026;-36
2021/08/18 07:57:29;;;;;;;9.63;5.20;;;;;;;37.50;24.14;99193.16;5029300;28;20049;-37
2021/08/18 07:59:55;;;;;;;12.13;5.03;;;;;;;37.58;24.26;99197.50;5028142;28;20045;-37
2021/08/18 08:02:22;;;;;;;9.27;5.15;;;;;;;37.43;24.05;99196.72;5028527;28;20173;-38
2021/08/18 08:04:48;;;;;;;10.05;5.80;;;;;;;37.64;23.90;99206.25;5029239;28;20088;-37
2021/08/18 08:07:13;;;;;;;9.75;5.00;;;;;;;38.04;23.37;99195.81;5029607;28;20045;-38
2021/08/18 08:09:39;;;;;;;11.38;5.07;;;;;;;37.98;23.45;99195.44;5029522;28;20033;-38
2021/08/18 08:12:05;;;;;;;9.23;5.20;;;;;;;38.25;23.27;99198.53;5029622;28;20025;-38
2021/08/18 08:14:30;;;;;;;9.98;5.40;;;;;;;38.30;22.94;99197.31;5029615;28;20096;-38
2021/08/18 08:16:55;;;;;;;9.63;5.18;;;;;;;37.03;24.51;99197.91;5029293;28;20103;-38
2021/08/18 08:19:21;;;;;;;10.68;5.03;;;;;;;36.51;25.00;99199.00;5029282;28;20030;-38
2021/08/18 08:21:47;;;;;;;10.20;5.13;;;;;;;37.30;24.45;99192.78;5029272;28;20025;-37
2021/08/18 08:24:12;;;;;;;9.38;5.30;;;;;;;37.52;24.03;99186.03;5029305;28;20146;-37
2021/08/18 08:26:37;;;;;;;10.90;5.25;;;;;;;37.58;23.90;99183.63;5042046;28;20021;-38
2021/08/18 08:29:03;;;;;;;9.75;5.50;;;;;;;38.01;23.44;99180.75;5049512;28;20020;-38
2021/08/18 08:31:28;;;;;;;10.65;5.50;;;;;;;37.46;24.36;99184.84;5049775;28;20476;-38
2021/08/18 08:33:54;;;;;;;12.20;5.45;;;;;;;37.73;23.98;99179.66;5049670;28;20459;-38
2021/08/18 08:36:19;;;;;;;7.40;5.28;;;;;;;38.02;23.51;99182.31;5049405;28;20017;-37
2021/08/18 08:38:45;;;;;;;10.88;5.45;;;;;;;37.63;23.73;99176.94;5053132;28;20036;-36
2021/08/18 08:41:10;;;;;;;7.15;5.35;;;;;;;37.26;24.20;99178.94;5053576;28;20032;-38
2021/08/18 08:43:37;;;;;;;10.40;5.53;;;;;;;37.26;24.54;99176.19;5053493;28;20029;-37
2021/08/18 08:46:05;;;;;;;10.00;5.22;;;;;;;37.75;23.52;99170.94;5053397;28;20021;-38
2021/08/18 08:48:31;;;;;;;14.07;5.65;;;;;;;37.93;23.55;99168.88;5053585;28;20028;-37
2021/08/18 08:50:56;;;;;;;7.70;4.90;;;;;;;38.07;23.64;99159.72;5052459;28;20029;-37
2021/08/18 08:53:24;;;;;;;9.57;5.25;;;;;;;38.18;23.17;99159.69;5052388;28;20127;-38
2021/08/18 08:55:49;;;;;;;5.93;5.10;;;;;;;38.25;23.38;99153.28;5053495;28;20044;-38
2021/08/18 08:58:14;;;;;;;10.05;5.80;;;;;;;38.40;23.11;99152.00;5053258;28;20424;-38
2021/08/18 09:00:40;;;;;;;12.63;5.10;;;;;;;37.87;24.09;99159.41;5053221;28;20017;-38
2021/08/18 09:03:06;;;;;;;11.85;5.60;;;;;;;37.96;23.71;99150.63;5053049;28;20025;-38
2021/08/18 09:05:32;;;;;;;7.45;4.97;;;;;;;37.31;24.20;99142.47;5052979;28;20033;-37
2021/08/18 09:07:58;;;;;;;11.00;5.60;;;;;;;36.95;24.18;99144.47;5052762;28;20037;-39
2021/08/18 09:10:23;;;;;;;12.48;5.50;;;;;;;37.49;24.14;99139.66;5053556;28;20404;-37
2021/08/18 09:12:49;;;;;;;10.75;5.30;;;;;;;37.79;23.77;99132.06;5052858;28;20503;-38
2021/08/18 09:15:16;;;;;;;11.20;5.70;;;;;;;37.87;23.50;99137.19;5053144;28;20131;-39
2021/08/18 09:17:42;;;;;;;7.97;5.13;;;;;;;38.37;22.38;99127.84;5052837;28;20025;-38
2021/08/18 09:20:14;;;;;;;12.40;5.25;;;;;;;37.71;23.40;99129.31;5052562;28;20381;-38
2021/08/18 09:22:44;;;;;;;7.40;5.60;;;;;;;37.53;23.38;99123.81;5052618;28;20032;-38
2021/08/18 09:25:27;;;;;;;13.82;5.13;;;;;;;37.75;22.63;99113.44;5051689;28;20082;-38
2021/08/18 09:28:15;;;;;;;6.93;5.03;;;;;;;37.43;23.26;99118.28;5032591;28;20021;-37
2021/08/18 09:30:45;;;;;;;10.10;5.68;;;;;;;38.24;22.65;99105.28;5032243;28;20115;-38
2021/08/18 09:33:15;;;;;;;9.80;5.68;;;;;;;38.76;22.46;99109.31;5031346;28;20036;-38
2021/08/18 09:35:41;;;;;;;10.30;5.50;;;;;;;38.51;22.31;99113.03;5032590;28;20048;-39
2021/08/18 09:38:08;;;;;;;10.70;5.60;;;;;;;38.79;21.94;99109.28;5032611;28;20054;-37
2021/08/18 09:40:45;;;;;;;7.50;5.80;;;;;;;38.48;21.61;99098.00;5032541;28;20029;-38
2021/08/18 09:43:26;;;;;;;11.95;5.38;;;;;;;38.08;22.42;99099.41;5032290;28;20022;-38
2021/08/18 09:45:58;;;;;;;8.82;5.45;;;;;;;38.34;22.29;99106.41;5032571;28;20025;-37
2021/08/18 09:48:27;;;;;;;10.38;5.22;;;;;;;38.41;22.22;99097.25;5032144;28;20531;-38
2021/08/18 09:50:58;;;;;;;7.50;5.07;;;;;;;38.75;21.75;99096.59;5032346;28;20508;-38
2021/08/18 09:53:27;;;;;;;6.25;5.03;;;;;;;38.79;21.33;99095.38;5032072;28;20048;-38
2021/08/18 09:55:54;;;;;;;9.20;4.97;;;;;;;38.71;21.47;99086.31;5032411;28;20096;-38
2021/08/18 09:58:27;;;;;;;6.38;5.18;;;;;;;38.75;21.17;99091.84;5031852;28;20029;-38
2021/08/18 10:00:54;;;;;;;8.77;5.50;;;;;;;38.72;21.28;99085.09;5032185;28;20032;-37
2021/08/18 10:03:20;;;;;;;7.78;5.40;;;;;;;38.83;21.10;99085.00;5031832;28;20025;-38
2021/08/18 10:05:48;;;;;;;9.13;5.63;;;;;;;39.16;20.88;99091.06;5031851;28;20045;-38
2021/08/18 10:08:14;;;;;;;8.35;6.00;;;;;;;39.84;20.08;99072.81;5030721;28;20284;-38
2021/08/18 10:10:39;;;;;;;9.60;6.10;;;;;;;39.27;20.75;99083.41;5030798;28;20095;-37
2021/08/18 10:13:07;;;;;;;10.07;6.18;;;;;;;39.10;20.21;99070.47;5031654;28;20037;-38
2021/08/18 10:15:32;;;;;;;8.82;5.72;;;;;;;39.14;21.03;99071.22;5031578;28;20013;-38
2021/08/18 10:17:58;;;;;;;7.57;5.35;;;;;;;39.19;21.30;99072.78;5031272;28;20013;-39
2021/08/18 10:20:23;;;;;;;9.35;5.45;;;;;;;39.61;21.07;99071.53;5029917;28;20017;-38
2021/08/18 10:23:10;;;;;;;9.27;5.78;;;;;;;39.83;21.15;99068.44;5030011;28;20034;-37
2021/08/18 10:25:46;;;;;;;7.75;4.93;;;;;;;40.08;19.95;99059.78;5031596;28;20454;-38
2021/08/18 10:28:12;;;;;;;8.80;6.55;;;;;;;40.15;19.77;99056.09;5031032;28;20116;-38
2021/08/18 10:30:53;;;;;;;7.88;5.88;;;;;;;39.96;20.49;99052.00;5031387;28;20097;-37
2021/08/18 10:33:53;;;;;;;12.38;6.70;;;;;;;39.73;19.69;99047.13;5031351;28;20401;-36
2021/08/18 10:36:43;;;;;;;11.93;7.15;;;;;;;39.85;19.42;99049.31;5031147;28;20465;-37
2021/08/18 10:39:18;;;;;;;10.52;6.38;;;;;;;40.12;19.30;99041.03;5031074;28;20090;-37
2021/08/18 10:41:59;;;;;;;9.75;6.55;;;;;;;40.20;19.26;99033.34;5029585;28;20423;-37
2021/08/18 10:44:37;;;;;;;9.30;6.70;;;;;;;39.79;20.19;99032.28;5031067;28;20112;-38
2021/08/18 10:47:15;;;;;;;10.07;6.05;;;;;;;39.40;19.99;99032.81;5030978;28;20104;-38
2021/08/18 10:49:44;;;;;;;8.77;6.43;;;;;;;38.71;21.30;99035.50;5030845;28;20026;-36
2021/08/18 10:52:10;;;;;;;10.98;6.22;;;;;;;39.43;20.40;99032.75;5031408;28;20086;-38
2021/08/18 10:54:39;;;;;;;10.35;6.45;;;;;;;39.91;19.81;99035.75;5031043;28;20029;-38
2021/08/18 10:57:05;;;;;;;12.10;6.85;;;;;;;39.40;20.55;99028.03;5030776;28;20029;-37
2021/08/18 10:59:36;;;;;;;10.18;6.38;;;;;;;39.77;19.74;99028.38;5029583;28;20025;-38
2021/08/18 11:02:02;;;;;;;13.07;7.00;;;;;;;39.99;19.38;99021.31;5030421;28;20029;-38
2021/08/18 11:04:50;;;;;;;10.63;6.57;;;;;;;40.82;18.67;99011.63;5030666;28;20029;-39
2021/08/18 11:07:16;;;;;;;9.93;6.47;;;;;;;39.99;19.59;99012.19;5024980;28;20051;-38
2021/08/18 11:09:48;;;;;;;10.55;6.40;;;;;;;39.68;19.64;99004.63;5028805;28;20021;-38
2021/08/18 11:12:39;;;;;;;11.60;6.50;;;;;;;39.32;20.01;98995.13;5030355;28;20396;-38
2021/08/18 11:15:19;;;;;;;9.57;6.45;;;;;;;39.94;19.83;98998.72;5030322;28;20036;-38
2021/08/18 11:17:47;;;;;;;10.32;6.68;;;;;;;40.11;19.97;98991.31;5030036;28;20061;-38
2021/08/18 11:20:15;;;;;;;10.23;6.25;;;;;;;40.21;19.01;98990.31;5030589;28;20056;-38
2021/08/18 11:22:40;;;;;;;9.75;7.10;;;;;;;40.37;19.52;98984.16;5030733;28;20025;-38
2021/08/18 11:25:06;;;;;;;13.50;6.97;;;;;;;40.21;18.98;98980.00;5029180;28;20025;-38
2021/08/18 11:27:32;;;;;;;9.30;6.65;;;;;;;39.86;18.92;98978.53;5028948;28;20025;-39